Time;durP1;ratioP1;P1;durP2;ratioP2;P2;SDS_P1;SDS_P2;PMS_P1;PMS_P2;Temp;Humidity;BMP_temperature;BMP_pressure;BME280_temperature;BME280_humidity;BME280_pressure;Samples;Min_cycle;Max_cycle;Signal;HPM_P1;HPM_P2
2021/05/28 00:01:49;;;;;;;7.15;5.78;;;12.10;99.90;;;;;;5098377;28;20293;-39
2021/05/28 00:04:17;;;;;;;8.00;7.20;;;12.00;99.90;;;;;;5098513;28;20738;-39
2021/05/28 00:06:45;;;;;;;4.78;4.30;;;11.90;99.90;;;;;;5098403;28;20207;-39
2021/05/28 00:09:13;;;;;;;5.75;5.20;;;11.80;99.90;;;;;;5098181;28;20648;-39
2021/05/28 00:11:40;;;;;;;6.47;5.72;;;11.70;99.90;;;;;;5098660;28;20211;-39
2021/05/28 00:14:09;;;;;;;4.68;4.22;;;11.50;99.90;;;;;;5098630;28;20568;-38
2021/05/28 00:16:36;;;;;;;5.18;4.78;;;11.50;99.90;;;;;;5098450;28;20222;-39
2021/05/28 00:19:04;;;;;;;7.22;5.05;;;11.30;99.90;;;;;;5098358;28;20269;-43
2021/05/28 00:21:32;;;;;;;4.97;4.35;;;11.30;99.90;;;;;;5098342;28;20258;-39
2021/05/28 00:24:01;;;;;;;4.93;4.53;;;11.20;99.90;;;;;;5098584;28;20237;-39
2021/05/28 00:26:28;;;;;;;5.68;5.28;;;11.10;99.90;;;;;;5098432;28;20308;-39
2021/05/28 00:28:57;;;;;;;5.32;4.82;;;11.00;99.90;;;;;;5098233;28;20295;-40
2021/05/28 00:31:25;;;;;;;5.32;4.93;;;11.00;99.90;;;;;;5098558;28;20589;-38
2021/05/28 00:33:53;;;;;;;4.88;4.47;;;10.90;99.90;;;;;;5098287;28;20294;-38
2021/05/28 00:36:20;;;;;;;5.38;4.97;;;10.90;99.90;;;;;;5098180;28;20333;-38
2021/05/28 00:38:48;;;;;;;5.10;4.70;;;10.90;99.90;;;;;;5094703;28;20213;-39
2021/05/28 00:41:16;;;;;;;5.43;4.93;;;10.90;99.90;;;;;;5095273;28;20570;-39
2021/05/28 00:43:43;;;;;;;5.80;5.25;;;11.00;99.90;;;;;;5095039;28;20210;-39
2021/05/28 00:46:11;;;;;;;4.95;4.55;;;11.00;99.90;;;;;;5095131;28;20568;-38
2021/05/28 00:48:38;;;;;;;7.07;5.05;;;11.00;99.90;;;;;;5094848;28;20214;-38
2021/05/28 00:51:07;;;;;;;5.30;4.80;;;11.00;99.90;;;;;;5094961;28;20286;-39
2021/05/28 00:53:35;;;;;;;5.85;5.25;;;11.00;99.90;;;;;;5095038;28;20305;-38
2021/05/28 00:56:03;;;;;;;5.55;5.05;;;11.00;99.90;;;;;;5094710;28;20297;-38
2021/05/28 00:58:31;;;;;;;6.78;5.63;;;11.00;99.90;;;;;;5094840;28;20210;-38
2021/05/28 01:00:59;;;;;;;5.63;5.13;;;11.00;99.90;;;;;;5094747;28;20289;-38
2021/05/28 01:03:26;;;;;;;6.30;5.65;;;11.00;99.90;;;;;;5094603;28;20301;-38
2021/05/28 01:05:54;;;;;;;5.82;5.32;;;10.90;99.90;;;;;;5094468;28;20207;-38
2021/05/28 01:08:21;;;;;;;5.55;5.05;;;10.90;99.90;;;;;;5094683;28;20206;-38
2021/05/28 01:10:49;;;;;;;5.60;5.10;;;10.80;99.90;;;;;;5094864;28;20206;-38
2021/05/28 01:13:16;;;;;;;5.93;5.43;;;10.80;99.90;;;;;;5094499;28;20210;-38
2021/05/28 01:15:44;;;;;;;5.60;5.07;;;10.80;99.90;;;;;;5094444;28;20676;-39
2021/05/28 01:18:12;;;;;;;7.82;5.47;;;10.70;99.90;;;;;;5094424;28;20237;-41
2021/05/28 01:20:39;;;;;;;7.60;5.40;;;10.70;99.90;;;;;;5094090;28;20723;-39
2021/05/28 01:23:08;;;;;;;6.75;5.25;;;10.70;99.90;;;;;;5094419;28;20318;-38
2021/05/28 01:25:35;;;;;;;6.40;5.20;;;10.80;99.90;;;;;;5094090;28;20242;-39
2021/05/28 01:28:03;;;;;;;6.35;5.63;;;10.80;99.90;;;;;;5093967;28;20202;-38
2021/05/28 01:30:31;;;;;;;5.88;5.35;;;10.90;99.90;;;;;;5093957;28;20285;-38
2021/05/28 01:32:58;;;;;;;6.15;5.60;;;10.90;99.90;;;;;;5093846;28;20302;-39
2021/05/28 01:35:26;;;;;;;5.55;5.13;;;10.90;99.90;;;;;;5094085;28;20206;-39
2021/05/28 01:37:53;;;;;;;5.90;5.38;;;10.90;99.90;;;;;;5094030;28;20311;-38
2021/05/28 01:40:23;;;;;;;5.88;5.38;;;10.80;99.90;;;;;;5093795;28;20744;-39
2021/05/28 01:42:51;;;;;;;6.60;5.90;;;10.70;99.90;;;;;;5093765;28;20253;-39
2021/05/28 01:45:19;;;;;;;6.90;6.20;;;10.70;99.90;;;;;;5093673;28;20305;-39
2021/05/28 01:47:46;;;;;;;5.60;5.07;;;10.60;99.90;;;;;;5093874;28;20289;-38
2021/05/28 01:50:15;;;;;;;6.65;5.88;;;10.50;99.90;;;;;;5092590;28;20306;-37
2021/05/28 01:52:42;;;;;;;6.72;6.15;;;10.50;99.90;;;;;;5093634;28;20246;-40
2021/05/28 01:55:12;;;;;;;6.55;5.95;;;10.40;99.90;;;;;;5093534;28;20297;-37
2021/05/28 01:57:41;;;;;;;7.72;5.43;;;10.40;99.90;;;;;;5093789;28;20652;-38
2021/05/28 02:00:13;;;;;;;6.07;5.50;;;10.40;99.90;;;;;;5093598;28;20210;-38
2021/05/28 02:02:40;;;;;;;6.00;5.50;;;10.40;99.90;;;;;;5093652;28;20337;-38
2021/05/28 02:05:10;;;;;;;6.53;5.93;;;10.40;99.90;;;;;;5093549;28;20633;-38
2021/05/28 02:07:38;;;;;;;6.68;6.00;;;10.40;99.90;;;;;;5093116;28;20241;-38
2021/05/28 02:10:06;;;;;;;6.65;6.05;;;10.40;99.90;;;;;;5093321;28;20688;-38
2021/05/28 02:12:34;;;;;;;6.13;5.60;;;10.30;99.90;;;;;;5093577;28;20238;-39
2021/05/28 02:15:04;;;;;;;6.35;5.72;;;10.30;99.90;;;;;;5093313;28;20236;-39
2021/05/28 02:17:31;;;;;;;5.82;5.25;;;10.20;99.90;;;;;;5093131;28;20222;-39
2021/05/28 02:19:59;;;;;;;6.57;5.97;;;10.20;99.90;;;;;;5093364;28;20234;-38
2021/05/28 02:22:26;;;;;;;6.53;5.90;;;10.10;99.90;;;;;;5092951;28;20383;-39
2021/05/28 02:24:54;;;;;;;6.75;6.00;;;10.10;99.90;;;;;;5093606;28;20207;-38
2021/05/28 02:27:21;;;;;;;7.03;6.43;;;10.20;99.90;;;;;;5093062;28;20760;-39
2021/05/28 02:29:51;;;;;;;8.50;6.65;;;10.30;99.90;;;;;;5093064;28;20216;-38
2021/05/28 02:32:20;;;;;;;6.95;6.28;;;10.40;99.90;;;;;;5093137;28;20429;-38
2021/05/28 02:34:47;;;;;;;6.93;6.25;;;10.40;99.90;;;;;;5092983;28;20299;-38
2021/05/28 02:37:14;;;;;;;6.15;5.65;;;10.50;99.90;;;;;;5093113;28;20234;-38
2021/05/28 02:39:42;;;;;;;8.15;5.70;;;10.50;99.90;;;;;;5093093;28;20265;-38
2021/05/28 02:42:11;;;;;;;7.05;6.22;;;10.50;99.90;;;;;;5092882;28;20210;-38
2021/05/28 02:44:39;;;;;;;6.72;6.20;;;10.50;99.90;;;;;;5092806;28;20580;-37
2021/05/28 02:47:07;;;;;;;7.25;6.55;;;10.50;99.90;;;;;;5092711;28;20217;-38
2021/05/28 02:49:36;;;;;;;7.15;6.65;;;10.50;99.90;;;;;;5092631;28;20639;-38
2021/05/28 02:52:04;;;;;;;9.18;8.18;;;10.50;99.90;;;;;;5092599;28;20245;-38
2021/05/28 02:54:32;;;;;;;8.30;7.60;;;10.50;99.90;;;;;;5092637;28;20215;-38
2021/05/28 02:56:59;;;;;;;8.27;7.47;;;10.50;99.90;;;;;;5092460;28;20233;-39
2021/05/28 02:59:27;;;;;;;14.57;12.90;;;10.60;99.90;;;;;;5092579;28;20252;-38
2021/05/28 03:01:54;;;;;;;11.07;9.98;;;10.60;99.90;;;;;;5092036;28;20319;-38
2021/05/28 03:04:21;;;;;;;9.65;8.85;;;10.60;99.90;;;;;;5092533;28;20309;-39
2021/05/28 03:06:50;;;;;;;9.10;8.20;;;10.60;99.90;;;;;;5092423;28;20665;-38
2021/05/28 03:09:17;;;;;;;9.20;8.32;;;10.60;99.90;;;;;;5092363;28;20641;-38
2021/05/28 03:11:45;;;;;;;9.32;8.43;;;10.60;99.90;;;;;;5092395;28;20370;-38
2021/05/28 03:14:12;;;;;;;9.20;8.30;;;10.70;99.90;;;;;;5092236;28;20240;-39
2021/05/28 03:16:40;;;;;;;7.53;6.63;;;10.70;99.90;;;;;;5092548;28;20211;-38
2021/05/28 03:19:15;;;;;;;7.35;6.75;;;10.70;99.90;;;;;;5092217;28;20333;-38
2021/05/28 03:24:26;;;;;;;7.38;6.75;;;10.50;99.90;;;;;;5092284;28;20720;-39
2021/05/28 03:26:53;;;;;;;6.97;6.38;;;10.50;99.90;;;;;;5092085;28;20213;-39
2021/05/28 03:29:21;;;;;;;7.00;6.07;;;10.40;99.90;;;;;;5092381;28;20213;-39
2021/05/28 03:31:49;;;;;;;6.97;6.05;;;10.30;99.90;;;;;;5092252;28;20237;-38
2021/05/28 03:34:16;;;;;;;7.55;5.75;;;10.30;99.90;;;;;;5091975;28;20207;-40
2021/05/28 03:36:44;;;;;;;7.40;5.97;;;10.20;99.90;;;;;;5091936;28;20351;-38
2021/05/28 03:39:12;;;;;;;6.00;5.47;;;10.20;99.90;;;;;;5092033;28;20209;-40
2021/05/28 03:41:40;;;;;;;6.82;5.97;;;10.20;99.90;;;;;;5091897;28;20206;-38
2021/05/28 03:44:07;;;;;;;6.00;5.40;;;10.30;99.90;;;;;;5092004;28;20249;-39
2021/05/28 03:46:35;;;;;;;7.25;6.35;;;10.30;99.90;;;;;;5091916;28;20249;-38
2021/05/28 03:49:02;;;;;;;6.05;5.55;;;10.30;99.90;;;;;;5091868;28;20742;-38
2021/05/28 03:51:30;;;;;;;8.10;6.45;;;10.40;99.90;;;;;;5091918;28;20289;-39
2021/05/28 03:53:57;;;;;;;5.70;5.30;;;10.50;99.90;;;;;;5091746;28;20211;-38
2021/05/28 03:56:25;;;;;;;8.60;5.57;;;10.50;99.90;;;;;;5091804;28;20665;-39
2021/05/28 03:58:53;;;;;;;6.82;6.15;;;10.50;99.90;;;;;;5091703;28;20314;-38
2021/05/28 04:01:20;;;;;;;7.07;6.38;;;10.60;99.90;;;;;;5091772;28;20298;-38
2021/05/28 04:03:50;;;;;;;6.82;6.13;;;10.60;99.90;;;;;;5091524;28;20289;-37
2021/05/28 04:06:17;;;;;;;6.72;6.13;;;10.50;99.90;;;;;;5091459;28;20203;-38
2021/05/28 04:08:45;;;;;;;7.18;6.15;;;10.50;99.90;;;;;;5091689;28;20281;-38
2021/05/28 04:11:12;;;;;;;6.72;6.07;;;10.50;99.90;;;;;;5091731;28;20207;-38
2021/05/28 04:13:40;;;;;;;7.13;6.13;;;10.50;99.90;;;;;;5094081;28;20301;-38
2021/05/28 04:16:08;;;;;;;6.30;5.70;;;10.50;99.90;;;;;;5095610;28;20206;-38
2021/05/28 04:18:35;;;;;;;6.15;5.63;;;10.50;99.90;;;;;;5095190;28;20227;-38
2021/05/28 04:21:03;;;;;;;6.55;5.95;;;10.50;99.90;;;;;;5094601;28;20455;-39
2021/05/28 04:23:31;;;;;;;6.95;6.25;;;10.60;99.90;;;;;;5094849;28;20293;-39
2021/05/28 04:25:58;;;;;;;8.68;7.47;;;10.60;99.90;;;;;;5095444;28;20602;-39
2021/05/28 04:28:27;;;;;;;8.73;7.03;;;10.70;99.90;;;;;;5095603;28;20285;-38
2021/05/28 04:30:55;;;;;;;7.95;6.93;;;10.70;99.90;;;;;;5095317;28;20757;-39
2021/05/28 04:33:24;;;;;;;7.60;6.72;;;10.70;99.90;;;;;;5095311;28;20257;-39
2021/05/28 04:35:51;;;;;;;10.35;7.65;;;10.80;99.90;;;;;;5095445;28;20298;-38
2021/05/28 04:38:19;;;;;;;6.65;6.05;;;10.90;99.90;;;;;;5094967;28;20230;-38
2021/05/28 04:40:48;;;;;;;8.73;6.90;;;10.90;99.90;;;;;;5095046;28;20301;-40
2021/05/28 04:43:15;;;;;;;9.02;6.03;;;11.00;99.90;;;;;;5095033;28;20369;-38
2021/05/28 04:45:43;;;;;;;11.43;7.35;;;11.10;99.90;;;;;;5094999;28;20358;-38
2021/05/28 04:48:10;;;;;;;7.43;6.68;;;11.30;99.90;;;;;;5094902;28;20290;-39
2021/05/28 04:50:39;;;;;;;6.68;6.07;;;11.50;99.90;;;;;;5094855;28;20751;-38
2021/05/28 04:53:07;;;;;;;6.50;5.82;;;11.50;99.90;;;;;;5095087;28;20289;-39
2021/05/28 04:55:35;;;;;;;7.40;5.65;;;11.60;99.90;;;;;;5095004;28;20297;-39
2021/05/28 04:58:03;;;;;;;7.55;6.78;;;11.70;99.90;;;;;;5094627;28;20230;-39
2021/05/28 05:00:31;;;;;;;9.52;6.30;;;11.80;99.90;;;;;;5094824;28;20337;-41
2021/05/28 05:02:58;;;;;;;7.97;7.30;;;11.90;99.90;;;;;;5094961;28;20293;-39
2021/05/28 05:05:27;;;;;;;7.63;7.03;;;12.00;99.90;;;;;;5094859;28;20301;-39
2021/05/28 05:07:55;;;;;;;6.53;5.97;;;12.10;99.90;;;;;;5094678;28;20297;-39
2021/05/28 05:10:22;;;;;;;6.35;5.63;;;12.10;99.90;;;;;;5094620;28;20203;-38
2021/05/28 05:12:50;;;;;;;6.32;5.72;;;12.20;99.90;;;;;;5094659;28;20301;-39
2021/05/28 05:15:17;;;;;;;6.30;5.80;;;12.20;99.90;;;;;;5094402;28;20306;-39
2021/05/28 05:17:45;;;;;;;11.35;10.25;;;12.20;99.90;;;;;;5094580;28;20232;-40
2021/05/28 05:20:13;;;;;;;27.27;24.50;;;12.30;99.90;;;;;;5094171;28;20245;-38
2021/05/28 05:22:41;;;;;;;10.82;9.70;;;12.40;99.90;;;;;;5094352;28;20301;-40
2021/05/28 05:25:11;;;;;;;6.93;6.25;;;12.60;99.90;;;;;;5093915;28;20305;-40
2021/05/28 05:27:38;;;;;;;5.63;5.13;;;12.70;99.90;;;;;;5094059;28;20581;-39
2021/05/28 05:30:07;;;;;;;5.32;4.57;;;12.90;99.90;;;;;;5094329;28;20216;-39
2021/05/28 05:32:35;;;;;;;6.95;5.35;;;13.00;99.90;;;;;;5093900;28;20685;-39
2021/05/28 05:35:03;;;;;;;7.18;5.47;;;13.00;99.90;;;;;;5094423;28;20211;-39
2021/05/28 05:37:31;;;;;;;5.75;5.25;;;13.10;99.90;;;;;;5093845;28;20206;-39
2021/05/28 05:39:58;;;;;;;5.93;5.43;;;13.10;99.90;;;;;;5093921;28;20628;-38
2021/05/28 05:42:26;;;;;;;6.32;5.22;;;13.10;99.90;;;;;;5093479;28;20211;-39
2021/05/28 05:44:54;;;;;;;5.25;4.57;;;13.20;99.90;;;;;;5093562;28;20242;-39
2021/05/28 05:47:21;;;;;;;6.40;5.43;;;13.30;99.90;;;;;;5093431;28;20207;-40
2021/05/28 05:49:48;;;;;;;6.35;5.75;;;13.30;99.90;;;;;;5093392;28;20206;-40
2021/05/28 05:52:16;;;;;;;6.00;5.50;;;13.30;99.90;;;;;;5093312;28;20207;-40
2021/05/28 05:54:43;;;;;;;6.00;5.40;;;13.30;99.90;;;;;;5093276;28;20206;-39
2021/05/28 05:57:12;;;;;;;5.63;4.85;;;13.30;99.90;;;;;;5093611;28;20222;-43
2021/05/28 05:59:40;;;;;;;5.35;4.80;;;13.40;99.90;;;;;;5093619;28;20253;-39
2021/05/28 06:02:08;;;;;;;6.65;5.93;;;13.40;99.90;;;;;;5093550;28;20203;-40
2021/05/28 06:04:35;;;;;;;13.85;12.40;;;13.50;99.90;;;;;;5093453;28;20253;-40
2021/05/28 06:07:03;;;;;;;6.07;5.50;;;13.60;99.90;;;;;;5093242;28;20210;-40
2021/05/28 06:09:30;;;;;;;20.27;17.63;;;13.70;99.90;;;;;;5093446;28;20294;-40
2021/05/28 06:11:59;;;;;;;8.00;7.22;;;13.80;99.90;;;;;;5093461;28;20642;-41
2021/05/28 06:14:27;;;;;;;8.05;6.07;;;13.90;99.90;;;;;;5093294;28;20211;-40
2021/05/28 06:16:55;;;;;;;6.22;5.72;;;14.00;99.90;;;;;;5093228;28;20289;-40
2021/05/28 06:19:23;;;;;;;6.03;5.53;;;13.90;99.90;;;;;;5092793;28;20329;-40
2021/05/28 06:21:51;;;;;;;6.38;5.78;;;13.90;99.90;;;;;;5093077;28;20301;-40
2021/05/28 06:24:18;;;;;;;8.15;7.38;;;14.00;99.90;;;;;;5093287;28;20302;-40
2021/05/28 06:26:46;;;;;;;9.43;6.20;;;14.00;99.90;;;;;;5093079;28;20209;-39
2021/05/28 06:29:13;;;;;;;10.82;5.95;;;13.90;99.90;;;;;;5092982;28;20207;-40
2021/05/28 06:31:41;;;;;;;6.22;5.07;;;13.90;99.90;;;;;;5092862;28;20268;-39
2021/05/28 06:34:09;;;;;;;7.22;6.53;;;14.00;99.90;;;;;;5092755;28;20283;-39
2021/05/28 06:36:36;;;;;;;9.48;8.57;;;13.90;99.90;;;;;;5092160;28;20234;-39
2021/05/28 06:39:05;;;;;;;7.10;6.40;;;14.00;99.90;;;;;;5092600;28;20325;-38
2021/05/28 06:41:32;;;;;;;7.40;6.70;;;14.00;99.90;;;;;;5092850;28;20623;-39
2021/05/28 06:43:59;;;;;;;6.30;5.70;;;14.10;99.90;;;;;;5092703;28;20290;-40
2021/05/28 06:46:27;;;;;;;6.50;5.90;;;14.20;99.90;;;;;;5092373;28;20632;-39
2021/05/28 06:48:55;;;;;;;7.35;5.90;;;14.30;99.90;;;;;;5092387;28;20249;-39
2021/05/28 06:51:24;;;;;;;13.57;10.52;;;14.50;99.90;;;;;;5092770;28;20563;-39
2021/05/28 06:53:51;;;;;;;9.20;8.38;;;14.60;99.90;;;;;;5092608;28;20298;-39
2021/05/28 06:56:19;;;;;;;8.40;6.93;;;14.70;99.90;;;;;;5092139;28;20217;-40
2021/05/28 06:58:48;;;;;;;6.93;5.65;;;14.80;99.90;;;;;;5092385;28;20317;-39
2021/05/28 07:01:16;;;;;;;7.82;7.00;;;15.00;99.90;;;;;;5092168;28;20297;-39
2021/05/28 07:03:44;;;;;;;7.63;6.93;;;15.20;99.90;;;;;;5092546;28;20211;-40
2021/05/28 07:06:11;;;;;;;8.55;7.78;;;15.50;99.90;;;;;;5091930;28;20673;-41
2021/05/28 07:08:40;;;;;;;7.45;6.75;;;15.60;99.90;;;;;;5091940;28;20297;-38
2021/05/28 07:11:09;;;;;;;7.50;6.80;;;15.60;99.90;;;;;;5092016;28;20207;-40
2021/05/28 07:13:37;;;;;;;8.18;6.97;;;15.60;99.90;;;;;;5091955;28;20601;-38
2021/05/28 07:16:06;;;;;;;7.97;7.15;;;15.80;99.90;;;;;;5091861;28;20217;-39
2021/05/28 07:18:33;;;;;;;7.80;7.05;;;16.10;99.90;;;;;;5091873;28;20233;-38
2021/05/28 07:21:00;;;;;;;7.50;6.90;;;16.30;99.90;;;;;;5091609;28;20239;-39
2021/05/28 07:23:29;;;;;;;8.38;7.28;;;16.40;99.90;;;;;;5091827;28;20245;-40
2021/05/28 07:26:00;;;;;;;8.57;7.30;;;16.50;99.90;;;;;;5091753;28;20377;-38
2021/05/28 07:28:28;;;;;;;7.53;6.75;;;16.60;99.90;;;;;;5091787;28;20502;-40
2021/05/28 07:30:56;;;;;;;7.38;6.68;;;16.70;99.60;;;;;;5091577;28;20297;-40
2021/05/28 07:33:24;;;;;;;8.02;7.25;;;16.90;99.20;;;;;;5091724;28;20257;-39
2021/05/28 07:35:52;;;;;;;7.22;6.53;;;17.20;98.70;;;;;;5091681;28;20622;-39
2021/05/28 07:38:19;;;;;;;7.28;6.60;;;17.50;98.20;;;;;;5091486;28;20654;-39
2021/05/28 07:40:47;;;;;;;6.78;6.18;;;17.70;97.70;;;;;;5091421;28;20642;-39
2021/05/28 07:43:15;;;;;;;7.03;6.43;;;18.00;97.10;;;;;;5091614;28;20310;-40
2021/05/28 07:45:48;;;;;;;7.32;6.65;;;18.20;96.70;;;;;;5091631;28;20213;-40
2021/05/28 07:48:16;;;;;;;6.95;6.30;;;18.30;96.30;;;;;;5095406;28;20347;-40
2021/05/28 07:50:47;;;;;;;6.20;5.63;;;18.30;96.00;;;;;;5095669;28;20242;-40
2021/05/28 07:53:15;;;;;;;7.30;6.63;;;18.30;95.90;;;;;;5095646;28;20210;-40
2021/05/28 07:55:43;;;;;;;7.30;6.63;;;18.00;96.00;;;;;;5095521;28;20211;-41
2021/05/28 07:58:11;;;;;;;9.82;7.07;;;17.70;96.40;;;;;;5095449;28;20547;-40
2021/05/28 08:00:39;;;;;;;6.22;5.63;;;17.60;96.60;;;;;;5095534;28;20217;-39
2021/05/28 08:03:06;;;;;;;7.35;6.68;;;17.70;96.60;;;;;;5095485;28;20209;-38
2021/05/28 08:05:34;;;;;;;7.50;6.22;;;17.80;96.40;;;;;;5095209;28;20203;-37
2021/05/28 08:08:02;;;;;;;7.30;6.32;;;17.70;96.30;;;;;;5095140;28;20669;-37
2021/05/28 08:10:30;;;;;;;7.20;6.47;;;17.60;96.50;;;;;;5094875;28;20301;-37
2021/05/28 08:12:58;;;;;;;6.82;6.20;;;17.60;96.40;;;;;;5095351;28;20238;-38
2021/05/28 08:15:25;;;;;;;6.80;5.88;;;17.80;96.00;;;;;;5095144;28;20213;-37
2021/05/28 08:17:54;;;;;;;7.05;5.72;;;18.00;95.60;;;;;;5095207;28;20253;-37
2021/05/28 08:20:21;;;;;;;7.15;6.45;;;18.20;95.60;;;;;;5094801;28;20241;-40
2021/05/28 08:22:48;;;;;;;5.93;5.40;;;18.40;95.00;;;;;;5094786;28;20309;-41
2021/05/28 08:25:16;;;;;;;5.13;4.72;;;18.70;94.60;;;;;;5094931;28;20207;-40
2021/05/28 08:27:43;;;;;;;9.02;5.88;;;18.70;93.80;;;;;;5094944;28;20290;-40
2021/05/28 08:30:14;;;;;;;5.95;5.45;;;18.60;93.80;;;;;;5094947;28;20206;-40
2021/05/28 08:32:41;;;;;;;6.30;5.70;;;18.50;93.90;;;;;;5094703;28;20206;-41
2021/05/28 08:35:10;;;;;;;5.10;4.70;;;18.40;94.10;;;;;;5094858;28;20217;-40
2021/05/28 08:37:38;;;;;;;5.88;5.28;;;18.10;94.20;;;;;;5094979;28;20238;-40
2021/05/28 08:40:08;;;;;;;6.90;6.38;;;17.80;94.50;;;;;;5094653;28;20309;-40
2021/05/28 08:42:36;;;;;;;6.05;5.55;;;17.50;94.90;;;;;;5094399;28;20213;-43
2021/05/28 08:45:05;;;;;;;6.40;5.82;;;17.30;95.10;;;;;;5094488;28;20613;-40
2021/05/28 08:47:33;;;;;;;6.45;5.78;;;17.30;95.10;;;;;;5094429;28;20655;-41
2021/05/28 08:50:01;;;;;;;6.72;6.22;;;17.20;94.90;;;;;;5094257;28;20254;-41
2021/05/28 08:52:29;;;;;;;6.53;6.03;;;17.10;94.90;;;;;;5094408;28;20265;-40
2021/05/28 08:54:57;;;;;;;8.52;5.90;;;17.00;95.20;;;;;;5094249;28;20246;-41
2021/05/28 08:57:25;;;;;;;7.45;6.70;;;16.90;95.40;;;;;;5094210;28;20681;-42
2021/05/28 08:59:52;;;;;;;6.70;6.05;;;16.90;95.60;;;;;;5093637;28;20223;-41
2021/05/28 09:02:32;;;;;;;7.53;6.88;;;17.10;95.50;;;;;;5094023;28;20717;-41
2021/05/28 09:05:11;;;;;;;7.07;6.47;;;17.20;95.40;;;;;;5094211;28;20211;-41
2021/05/28 09:07:41;;;;;;;8.27;6.05;;;17.20;95.30;;;;;;5094190;28;20213;-39
2021/05/28 09:10:30;;;;;;;7.32;6.72;;;17.30;95.20;;;;;;5094196;28;20572;-40
2021/05/28 09:13:14;;;;;;;7.25;6.55;;;17.40;95.10;;;;;;5093930;28;20228;-42
2021/05/28 09:15:44;;;;;;;7.30;6.20;;;17.40;94.90;;;;;;5094183;28;20202;-41
2021/05/28 09:18:13;;;;;;;6.85;6.35;;;17.20;95.20;;;;;;5094000;28;20298;-41
2021/05/28 09:20:45;;;;;;;6.68;5.90;;;17.10;95.20;;;;;;5093578;28;20597;-42
2021/05/28 09:23:16;;;;;;;5.90;5.40;;;17.00;95.20;;;;;;5093363;28;20241;-40
2021/05/28 09:26:08;;;;;;;5.38;4.97;;;16.90;95.40;;;;;;5093975;28;20638;-39
2021/05/28 09:28:43;;;;;;;5.18;4.78;;;16.80;95.20;;;;;;5093819;28;20210;-41
2021/05/28 09:31:14;;;;;;;5.65;5.18;;;16.80;95.10;;;;;;5093598;28;20297;-39
2021/05/28 09:33:44;;;;;;;6.85;6.10;;;16.80;94.70;;;;;;5093379;28;20230;-38
2021/05/28 09:36:14;;;;;;;6.30;5.70;;;16.90;94.50;;;;;;5093404;28;20765;-39
2021/05/28 09:39:01;;;;;;;5.78;5.20;;;17.10;94.10;;;;;;5093584;28;20673;-39
2021/05/28 09:41:44;;;;;;;6.50;5.32;;;17.50;93.50;;;;;;5093664;28;20684;-39
2021/05/28 09:44:18;;;;;;;5.07;4.68;;;17.90;92.90;;;;;;5093494;28;20207;-40
2021/05/28 09:47:04;;;;;;;5.65;4.70;;;18.20;92.50;;;;;;5093596;28;20208;-39
2021/05/28 09:49:34;;;;;;;5.50;5.03;;;18.50;91.90;;;;;;5096245;28;20217;-40
2021/05/28 09:52:08;;;;;;;6.00;5.43;;;18.60;91.70;;;;;;5093207;28;20214;-40
2021/05/28 09:54:36;;;;;;;5.60;5.13;;;18.80;91.40;;;;;;5092524;28;20246;-40
2021/05/28 09:57:04;;;;;;;5.80;5.22;;;18.80;91.20;;;;;;5093468;28;20222;-42
2021/05/28 09:59:45;;;;;;;5.30;4.82;;;18.80;91.00;;;;;;5092868;28;20355;-41
2021/05/28 10:02:27;;;;;;;5.72;5.15;;;18.70;91.00;;;;;;5092796;28;20669;-43
2021/05/28 10:04:57;;;;;;;5.85;5.35;;;18.60;91.10;;;;;;5093035;28;20625;-40
2021/05/28 10:07:25;;;;;;;5.20;4.30;;;18.60;91.00;;;;;;5092872;28;20707;-41
2021/05/28 10:09:55;;;;;;;5.10;4.70;;;18.60;90.80;;;;;;5092117;28;20203;-39
2021/05/28 10:12:25;;;;;;;6.05;4.80;;;18.60;90.80;;;;;;5093352;28;20207;-42
2021/05/28 10:14:58;;;;;;;4.53;4.13;;;18.50;90.90;;;;;;5093025;28;20261;-42
2021/05/28 10:17:26;;;;;;;5.28;4.80;;;18.30;91.10;;;;;;5094118;28;20195;-42
2021/05/28 10:19:53;;;;;;;5.28;4.65;;;18.30;91.20;;;;;;5092170;28;20253;-41
2021/05/28 10:22:22;;;;;;;5.10;4.60;;;18.20;91.50;;;;;;5092631;28;20241;-41
2021/05/28 10:24:50;;;;;;;6.35;5.30;;;18.10;91.60;;;;;;5092441;28;20253;-40
2021/05/28 10:27:22;;;;;;;5.90;5.07;;;18.20;91.60;;;;;;5092801;28;20310;-42
2021/05/28 10:29:51;;;;;;;5.72;5.25;;;18.10;91.60;;;;;;5092812;28;20242;-40
2021/05/28 10:32:19;;;;;;;6.40;5.50;;;18.10;91.70;;;;;;5092878;28;20286;-40
2021/05/28 10:35:21;;;;;;;5.45;4.95;;;18.20;91.40;;;;;;5092894;28;20207;-40
2021/05/28 10:37:48;;;;;;;5.38;4.88;;;18.50;90.90;;;;;;5010522;28;20299;-40
2021/05/28 10:40:29;;;;;;;5.07;4.68;;;18.70;90.80;;;;;;5010203;28;20257;-39
2021/05/28 10:43:02;;;;;;;4.93;4.53;;;18.80;90.70;;;;;;5055642;28;20293;-39
2021/05/28 10:45:55;;;;;;;5.63;5.20;;;18.90;90.70;;;;;;5092623;28;20203;-39
2021/05/28 10:49:00;;;;;;;5.03;4.63;;;19.00;90.20;;;;;;5092478;28;20216;-42
2021/05/28 10:52:00;;;;;;;6.30;4.93;;;19.20;90.00;;;;;;5093077;28;20661;-41
2021/05/28 10:54:31;;;;;;;4.63;4.22;;;19.40;88.90;;;;;;5085147;28;20310;-39
2021/05/28 10:57:18;;;;;;;5.75;5.25;;;19.60;88.60;;;;;;5091985;28;20206;-39
2021/05/28 10:59:48;;;;;;;5.80;5.30;;;19.70;87.80;;;;;;5092141;28;20670;-39
2021/05/28 11:02:36;;;;;;;5.85;5.35;;;19.50;87.60;;;;;;5093706;28;20215;-38
2021/05/28 11:05:04;;;;;;;5.70;5.07;;;19.40;88.30;;;;;;5091951;28;20289;-39
2021/05/28 11:07:35;;;;;;;5.75;5.25;;;19.20;88.60;;;;;;5091919;28;20203;-39
2021/05/28 11:10:24;;;;;;;5.63;5.22;;;19.20;88.20;;;;;;5091996;28;20297;-38
2021/05/28 11:12:52;;;;;;;4.97;4.60;;;19.10;88.10;;;;;;5091985;28;20268;-39
2021/05/28 11:15:27;;;;;;;5.75;4.72;;;19.00;87.90;;;;;;5091757;28;20297;-39
2021/05/28 11:17:58;;;;;;;5.40;4.85;;;18.70;88.50;;;;;;5091635;28;20244;-39
2021/05/28 11:20:32;;;;;;;5.15;4.38;;;18.30;89.90;;;;;;5091280;28;20284;-39
2021/05/28 11:23:00;;;;;;;5.78;4.65;;;18.00;90.40;;;;;;5091145;28;20202;-38
2021/05/28 11:25:31;;;;;;;4.70;4.30;;;17.80;90.70;;;;;;5091652;28;20207;-40
2021/05/28 11:28:08;;;;;;;5.47;4.57;;;17.80;90.80;;;;;;5091572;28;20207;-40
2021/05/28 11:30:47;;;;;;;5.85;5.32;;;17.90;90.70;;;;;;5091644;28;20637;-40
2021/05/28 11:33:39;;;;;;;4.80;4.35;;;18.10;90.20;;;;;;5091674;28;20572;-39
2021/05/28 11:36:21;;;;;;;5.15;4.65;;;18.30;89.90;;;;;;5091767;28;20238;-41
2021/05/28 11:38:55;;;;;;;6.50;4.97;;;18.40;89.30;;;;;;5091850;28;20629;-40
2021/05/28 11:41:42;;;;;;;7.00;4.63;;;18.40;89.20;;;;;;5091545;28;20269;-40
2021/05/28 11:44:10;;;;;;;5.03;4.53;;;18.70;88.50;;;;;;5091668;28;20247;-40
2021/05/28 11:46:41;;;;;;;4.90;4.50;;;18.90;87.90;;;;;;5091327;28;20696;-40
2021/05/28 11:49:09;;;;;;;4.97;4.47;;;19.10;87.00;;;;;;5091493;28;20283;-41
2021/05/28 11:51:37;;;;;;;7.30;6.60;;;19.30;86.20;;;;;;5091418;28;20286;-42
2021/05/28 11:54:23;;;;;;;4.95;4.15;;;19.40;85.60;;;;;;5091463;28;20206;-40
2021/05/28 11:56:55;;;;;;;4.85;3.90;;;19.60;84.60;;;;;;5091688;28;20218;-40
2021/05/28 11:59:54;;;;;;;5.13;4.65;;;19.60;83.50;;;;;;5091262;28;20298;-40
2021/05/28 12:02:47;;;;;;;4.95;4.13;;;19.50;83.50;;;;;;5091405;28;20242;-40
2021/05/28 12:05:24;;;;;;;4.38;3.97;;;19.40;82.80;;;;;;5091390;28;20246;-51
2021/05/28 12:07:53;;;;;;;4.78;3.55;;;19.30;84.20;;;;;;5091335;28;20191;-40
2021/05/28 12:10:21;;;;;;;4.15;3.75;;;19.30;83.70;;;;;;5091427;28;20202;-40
2021/05/28 12:13:00;;;;;;;4.60;4.20;;;19.30;84.10;;;;;;5091505;28;20301;-40
2021/05/28 12:15:31;;;;;;;6.13;4.25;;;19.50;83.60;;;;;;5091018;28;20234;-40
2021/05/28 12:18:01;;;;;;;5.65;4.10;;;19.60;82.80;;;;;;5091147;28;20208;-39
2021/05/28 12:20:32;;;;;;;4.32;4.00;;;19.70;82.70;;;;;;5091138;28;20231;-40
2021/05/28 12:23:08;;;;;;;5.10;4.57;;;19.90;82.30;;;;;;5091372;28;20649;-43
2021/05/28 12:25:39;;;;;;;4.53;4.10;;;20.30;81.40;;;;;;5091137;28;20472;-40
2021/05/28 12:28:10;;;;;;;3.78;3.42;;;20.50;80.10;;;;;;5091205;28;20211;-40
2021/05/28 12:30:38;;;;;;;5.35;4.43;;;20.80;78.90;;;;;;5091104;28;20238;-40
2021/05/28 12:33:07;;;;;;;5.22;3.53;;;20.90;77.50;;;;;;5091158;28;20744;-40
2021/05/28 12:35:35;;;;;;;11.35;4.00;;;20.80;78.00;;;;;;5095072;28;20202;-40
2021/05/28 12:38:08;;;;;;;4.00;3.70;;;20.70;78.50;;;;;;5094779;28;20202;-41
2021/05/28 12:40:38;;;;;;;4.97;4.55;;;20.70;78.70;;;;;;5095182;28;20569;-40
2021/05/28 12:43:06;;;;;;;3.90;3.60;;;20.30;79.30;;;;;;5094709;28;20293;-40
2021/05/28 12:45:40;;;;;;;4.80;4.30;;;20.00;80.40;;;;;;5094821;28;20302;-40
2021/05/28 12:48:11;;;;;;;4.65;4.25;;;19.60;81.10;;;;;;5094653;28;20618;-39
2021/05/28 12:50:40;;;;;;;4.47;3.85;;;19.20;83.00;;;;;;5094794;28;20203;-39
2021/05/28 12:53:16;;;;;;;4.63;4.05;;;19.00;82.80;;;;;;5094623;28;20207;-39
2021/05/28 12:55:53;;;;;;;3.95;3.53;;;19.00;82.80;;;;;;5094396;28;20259;-38
2021/05/28 12:58:26;;;;;;;4.00;3.70;;;19.20;82.80;;;;;;5094463;28;20401;-38
2021/05/28 13:00:59;;;;;;;7.05;4.15;;;19.40;82.30;;;;;;5094509;28;20239;-38
2021/05/28 13:03:42;;;;;;;5.93;4.35;;;19.50;82.10;;;;;;5094545;28;20218;-42